Terminal Aerodrome Forecast
Issued by NWS

Home | Current Version | Previous Version | Text Only | Print | Product List | Glossary Off
Versions: 1 2 3 4 5 6 7 8 9 10 11 12 13 14 15 16 17

851
FTUS43 KMPX 200520
TAFRWF
TAF
KRWF 200520Z 2006/2106 02005KT P6SM VCTS BKN050CB BKN100
     FM200700 36005KT P6SM SCT015 BKN110
     FM201200 36005KT P6SM SCT020 SCT250
     FM201800 07007KT P6SM BKN150
     FM210200 12005KT P6SM SCT100 BKN250=

USA.gov is the U.S. government's official web portal to all federal, state and local government web resources and services.